createdAt,value
2023-04-30T00:02:15.599Z,3.95
2023-04-30T00:04:42.281Z,4.00
2023-04-30T00:07:09.002Z,3.95
2023-04-30T00:09:35.663Z,3.93
2023-04-30T00:12:02.425Z,3.88
2023-04-30T00:14:29.263Z,3.76
2023-04-30T00:16:55.958Z,3.64
2023-04-30T00:19:22.733Z,3.69
2023-04-30T00:21:49.582Z,3.62
2023-04-30T00:24:16.245Z,3.66
2023-04-30T00:26:43.979Z,3.66
2023-04-30T00:29:11.276Z,3.40
2023-04-30T00:31:38.087Z,3.30
2023-04-30T00:34:04.889Z,3.21
2023-04-30T00:36:31.942Z,3.24
2023-04-30T00:38:58.659Z,3.34
2023-04-30T00:41:26.008Z,3.39
2023-04-30T00:43:52.710Z,3.40
2023-04-30T00:46:19.523Z,3.46
2023-04-30T00:48:46.230Z,3.46
2023-04-30T00:51:13.419Z,3.32
2023-04-30T00:53:40.521Z,3.39
2023-04-30T00:56:09.378Z,3.30
2023-04-30T00:58:36.195Z,3.06
2023-04-30T01:01:07.092Z,3.10
2023-04-30T01:03:36.323Z,3.17
2023-04-30T01:06:03.442Z,3.25
2023-04-30T01:08:31.856Z,3.26
2023-04-30T01:11:04.315Z,3.32
2023-04-30T01:13:40.857Z,3.35
2023-04-30T01:16:18.244Z,3.24
2023-04-30T01:18:54.968Z,3.08
2023-04-30T01:21:22.772Z,2.88
2023-04-30T01:23:55.434Z,2.91
2023-04-30T01:26:58.573Z,2.92
2023-04-30T01:29:27.676Z,3.05
2023-04-30T01:31:54.262Z,3.20
2023-04-30T01:34:20.882Z,3.15
2023-04-30T01:37:30.069Z,3.15
2023-04-30T01:39:59.580Z,3.14
2023-04-30T01:42:41.779Z,3.20
2023-04-30T01:45:46.175Z,3.23
2023-04-30T01:48:31.412Z,3.26
2023-04-30T01:51:15.089Z,3.04
2023-04-30T01:53:43.969Z,3.15
2023-04-30T01:56:19.098Z,3.20
2023-04-30T01:58:49.648Z,3.25
2023-04-30T02:01:30.834Z,3.30
2023-04-30T02:03:57.811Z,3.46
2023-04-30T02:06:28.732Z,3.53
2023-04-30T02:09:04.286Z,3.56
2023-04-30T02:11:31.075Z,3.66
2023-04-30T02:13:57.730Z,3.63
2023-04-30T02:16:24.562Z,3.76
2023-04-30T02:18:51.825Z,3.82
2023-04-30T02:21:18.592Z,3.94
2023-04-30T02:23:45.345Z,3.98
2023-04-30T02:26:12.000Z,4.00
2023-04-30T02:28:38.738Z,3.98
2023-04-30T02:31:05.969Z,4.11
2023-04-30T02:33:32.804Z,4.01
2023-04-30T02:36:00.966Z,3.99
2023-04-30T02:38:27.698Z,4.03
2023-04-30T02:40:54.378Z,4.03
2023-04-30T02:43:21.146Z,4.08
2023-04-30T02:45:48.318Z,4.14
2023-04-30T02:48:15.574Z,4.09
2023-04-30T02:50:42.206Z,4.06
2023-04-30T02:53:08.922Z,4.00
2023-04-30T02:55:35.728Z,4.00
2023-04-30T02:58:02.436Z,3.94
2023-04-30T03:00:29.124Z,3.85
2023-04-30T03:02:56.076Z,3.84
2023-04-30T03:05:23.176Z,3.69
2023-04-30T03:07:49.879Z,3.65
2023-04-30T03:10:16.640Z,3.61
2023-04-30T03:12:43.241Z,3.53
2023-04-30T03:15:10.738Z,3.57
2023-04-30T03:17:37.471Z,3.48
2023-04-30T03:20:04.428Z,3.39
2023-04-30T03:22:31.052Z,3.37
2023-04-30T03:24:57.759Z,3.36
2023-04-30T03:27:24.404Z,3.30
2023-04-30T03:29:51.081Z,3.24
2023-04-30T03:32:17.707Z,3.17
2023-04-30T03:34:44.393Z,3.16
2023-04-30T03:37:11.087Z,3.05
2023-04-30T03:39:37.789Z,3.07
2023-04-30T03:42:04.544Z,3.09
2023-04-30T03:44:31.238Z,3.11
2023-04-30T03:46:57.989Z,3.07
2023-04-30T03:49:24.739Z,3.10
2023-04-30T03:51:51.414Z,2.94
2023-04-30T03:54:18.069Z,2.90
2023-04-30T03:56:44.748Z,2.92
2023-04-30T03:59:11.503Z,2.94
2023-04-30T04:01:38.314Z,2.96
2023-04-30T04:04:05.273Z,2.81
2023-04-30T04:08:58.875Z,2.88
2023-04-30T04:11:25.805Z,2.99
2023-04-30T04:13:52.443Z,3.05
2023-04-30T04:16:19.153Z,3.20
2023-04-30T04:18:46.177Z,3.26
2023-04-30T04:21:13.240Z,3.29
2023-04-30T04:23:39.980Z,3.44
2023-04-30T04:26:07.105Z,3.44
2023-04-30T04:28:33.732Z,3.57
2023-04-30T04:31:00.578Z,3.78
2023-04-30T04:33:27.864Z,4.01
2023-04-30T04:35:54.968Z,4.36
2023-04-30T04:38:22.302Z,4.44
2023-04-30T04:40:53.797Z,4.61
2023-04-30T04:43:20.789Z,4.65
2023-04-30T04:45:48.061Z,4.87
2023-04-30T04:48:15.240Z,4.93
2023-04-30T04:50:42.163Z,5.18
2023-04-30T04:53:08.997Z,5.49
2023-04-30T04:55:36.214Z,5.63
2023-04-30T04:58:02.950Z,5.73
2023-04-30T05:00:29.902Z,5.87
2023-04-30T05:02:56.903Z,5.87
2023-04-30T05:05:24.123Z,5.89
2023-04-30T05:07:52.500Z,5.87
2023-04-30T05:10:22.002Z,5.82
2023-04-30T05:12:48.618Z,5.84
2023-04-30T05:15:15.413Z,5.87
2023-04-30T05:17:42.197Z,5.85
2023-04-30T05:20:09.632Z,5.97
2023-04-30T05:22:36.327Z,5.96
2023-04-30T05:25:02.998Z,6.05
2023-04-30T05:27:29.852Z,6.20
2023-04-30T05:29:56.764Z,6.15
2023-04-30T05:32:23.753Z,6.17
2023-04-30T05:34:50.615Z,6.34
2023-04-30T05:37:19.437Z,6.44
2023-04-30T05:39:46.784Z,6.43
2023-04-30T05:42:13.466Z,6.41
2023-04-30T05:44:41.177Z,6.44
2023-04-30T05:47:07.896Z,6.46
2023-04-30T05:49:36.201Z,6.51
2023-04-30T05:52:03.747Z,6.56
2023-04-30T05:54:31.194Z,6.50
2023-04-30T05:56:57.995Z,6.57
2023-04-30T05:59:24.906Z,6.74
2023-04-30T06:01:52.133Z,6.81
2023-04-30T06:04:18.792Z,6.92
2023-04-30T06:06:45.666Z,6.99
2023-04-30T06:09:12.567Z,6.98
2023-04-30T06:11:41.654Z,6.96
2023-04-30T06:14:33.035Z,6.97
2023-04-30T06:16:59.909Z,7.26
2023-04-30T06:19:26.744Z,7.26
2023-04-30T06:21:53.529Z,7.64
2023-04-30T06:24:22.689Z,8.95
2023-04-30T06:26:49.512Z,9.87
2023-04-30T06:29:16.482Z,9.96
2023-04-30T06:31:43.249Z,9.90
2023-04-30T06:34:10.034Z,10.21
2023-04-30T06:36:42.332Z,10.23
2023-04-30T06:39:09.797Z,10.41
2023-04-30T06:41:36.614Z,10.67
2023-04-30T06:44:03.374Z,11.00
2023-04-30T06:46:30.322Z,10.46
2023-04-30T06:48:57.070Z,10.88
2023-04-30T06:51:23.731Z,11.37
2023-04-30T06:53:53.458Z,11.61
2023-04-30T06:56:22.060Z,11.15
2023-04-30T06:58:50.372Z,11.25
2023-04-30T07:01:17.632Z,10.33
2023-04-30T07:03:44.517Z,10.03
2023-04-30T07:06:11.416Z,9.39
2023-04-30T07:08:41.004Z,9.57
2023-04-30T07:11:08.095Z,10.26
2023-04-30T07:13:35.068Z,9.86
2023-04-30T07:16:01.944Z,10.09
2023-04-30T07:18:28.746Z,10.14
2023-04-30T07:20:56.218Z,10.12
2023-04-30T07:26:04.881Z,9.60
2023-04-30T07:28:32.293Z,9.12
2023-04-30T07:30:59.226Z,8.99
2023-04-30T07:33:27.374Z,9.05
2023-04-30T07:35:56.158Z,9.15
2023-04-30T07:38:24.008Z,8.88
2023-04-30T07:40:51.031Z,8.84
2023-04-30T07:43:18.244Z,8.99
2023-04-30T07:45:46.622Z,8.92
2023-04-30T07:48:14.480Z,8.49
2023-04-30T07:50:41.298Z,8.32
2023-04-30T07:53:09.588Z,9.26
2023-04-30T07:55:37.660Z,9.52
2023-04-30T07:58:05.967Z,9.78
2023-04-30T08:00:34.791Z,10.09
2023-04-30T08:03:02.564Z,9.50
2023-04-30T08:05:30.329Z,9.41
2023-04-30T08:07:57.384Z,9.37
2023-04-30T08:10:25.369Z,9.33
2023-04-30T08:12:53.670Z,9.44
2023-04-30T08:15:24.161Z,9.59
2023-04-30T08:17:51.966Z,10.09
2023-04-30T08:20:20.034Z,10.99
2023-04-30T08:22:48.136Z,10.64
2023-04-30T08:25:16.393Z,11.10
2023-04-30T08:27:43.227Z,11.37
2023-04-30T08:30:10.162Z,11.38
2023-04-30T08:32:37.463Z,11.71
2023-04-30T08:35:08.140Z,11.54
2023-04-30T08:37:36.342Z,10.22
2023-04-30T08:40:05.870Z,10.09
2023-04-30T08:42:47.918Z,10.30
2023-04-30T08:45:16.602Z,11.38
2023-04-30T08:47:47.291Z,10.99
2023-04-30T08:50:16.638Z,11.61
2023-04-30T08:52:44.345Z,11.05
2023-04-30T08:55:11.719Z,11.19
2023-04-30T08:57:39.588Z,10.94
2023-04-30T09:00:11.730Z,10.59
2023-04-30T09:02:44.960Z,10.80
2023-04-30T09:05:15.764Z,11.63
2023-04-30T09:07:56.007Z,11.67
2023-04-30T09:11:03.576Z,12.46
2023-04-30T09:13:47.739Z,12.59
2023-04-30T09:16:30.641Z,12.06
2023-04-30T09:18:58.071Z,11.83
2023-04-30T09:21:37.445Z,10.87
2023-04-30T09:24:07.875Z,11.64
2023-04-30T09:26:44.917Z,12.37
2023-04-30T09:29:25.792Z,12.46
2023-04-30T09:32:17.667Z,12.44
2023-04-30T09:35:05.555Z,12.78
2023-04-30T09:40:13.003Z,12.84
2023-04-30T09:42:40.079Z,13.31
2023-04-30T09:45:08.048Z,12.14
2023-04-30T09:47:35.889Z,11.82
2023-04-30T09:50:02.792Z,11.58
2023-04-30T09:52:29.495Z,11.64
2023-04-30T09:54:56.152Z,12.25
2023-04-30T09:57:24.556Z,12.86
2023-04-30T09:59:52.752Z,12.84
2023-04-30T10:02:20.944Z,13.23
2023-04-30T10:04:53.958Z,12.76
2023-04-30T10:07:22.864Z,12.46
2023-04-30T10:10:03.237Z,13.39
2023-04-30T10:13:00.464Z,12.91
2023-04-30T10:15:39.330Z,12.36
2023-04-30T10:18:11.433Z,12.63
2023-04-30T10:20:39.408Z,12.62
2023-04-30T10:23:07.266Z,14.08
2023-04-30T10:25:34.110Z,12.96
2023-04-30T10:28:02.595Z,13.44
2023-04-30T10:30:31.958Z,13.96
2023-04-30T10:33:33.264Z,13.82
2023-04-30T10:36:02.573Z,13.46
2023-04-30T10:38:30.863Z,13.71
2023-04-30T10:40:59.310Z,13.45
2023-04-30T10:43:26.398Z,13.38
2023-04-30T10:45:53.297Z,13.61
2023-04-30T10:48:26.809Z,13.46
2023-04-30T10:50:56.848Z,13.03
2023-04-30T10:53:26.354Z,13.33
2023-04-30T10:56:07.504Z,13.43
2023-04-30T10:58:35.889Z,13.13
2023-04-30T11:01:13.665Z,12.62
2023-04-30T11:03:43.112Z,12.86
2023-04-30T11:06:15.113Z,13.20
2023-04-30T11:08:46.186Z,13.12
2023-04-30T11:11:20.745Z,12.73
2023-04-30T11:13:57.845Z,13.02
2023-04-30T11:16:31.562Z,13.35
2023-04-30T11:19:09.507Z,13.85
2023-04-30T11:22:05.502Z,13.39
2023-04-30T11:24:54.153Z,13.53
2023-04-30T11:27:23.049Z,13.11
2023-04-30T11:29:51.698Z,12.88
2023-04-30T11:32:23.643Z,13.52
2023-04-30T11:34:51.168Z,13.62
2023-04-30T11:37:24.668Z,14.05
2023-04-30T11:39:52.043Z,14.43
2023-04-30T11:42:19.722Z,14.03
2023-04-30T11:44:46.380Z,14.48
2023-04-30T11:47:14.536Z,14.51
2023-04-30T11:49:41.913Z,15.03
2023-04-30T11:52:09.580Z,14.32
2023-04-30T11:54:38.153Z,14.13
2023-04-30T11:57:06.399Z,14.41
2023-04-30T11:59:41.506Z,13.92
2023-04-30T12:02:08.512Z,14.64
2023-04-30T12:04:36.811Z,14.48
2023-04-30T12:07:03.593Z,14.20
2023-04-30T12:09:30.258Z,14.05
2023-04-30T12:11:56.932Z,14.42
2023-04-30T12:14:25.072Z,14.40
2023-04-30T12:16:52.931Z,14.89
2023-04-30T12:19:22.099Z,15.94
2023-04-30T12:21:49.766Z,15.08
2023-04-30T12:24:18.352Z,14.91
2023-04-30T12:26:45.851Z,14.07
2023-04-30T12:29:17.313Z,14.61
2023-04-30T12:31:44.670Z,14.64
2023-04-30T12:34:15.076Z,14.98
2023-04-30T12:36:45.019Z,15.17
2023-04-30T12:39:14.077Z,14.59
2023-04-30T12:41:45.990Z,15.14
2023-04-30T12:44:24.701Z,15.36
2023-04-30T12:46:56.337Z,15.37
2023-04-30T12:49:33.557Z,15.88
2023-04-30T12:52:04.383Z,14.92
2023-04-30T12:54:32.799Z,15.00
2023-04-30T12:57:05.216Z,15.57
2023-04-30T12:59:34.359Z,14.51
2023-04-30T13:02:11.717Z,13.89
2023-04-30T13:04:38.517Z,14.47
2023-04-30T13:07:05.302Z,14.80
2023-04-30T13:09:37.403Z,14.85
2023-04-30T13:12:04.900Z,14.42
2023-04-30T13:14:32.547Z,14.44
2023-04-30T13:16:59.642Z,14.70
2023-04-30T13:19:26.922Z,14.70
2023-04-30T13:21:53.690Z,14.29
2023-04-30T13:24:20.371Z,15.07
2023-04-30T13:26:47.519Z,14.82
2023-04-30T13:29:14.292Z,15.07
2023-04-30T13:31:42.444Z,15.09
2023-04-30T13:34:10.189Z,15.02
2023-04-30T13:36:37.073Z,15.27
2023-04-30T13:39:04.768Z,15.14
2023-04-30T13:41:31.527Z,15.24
2023-04-30T13:44:00.005Z,15.08
2023-04-30T13:46:26.737Z,15.29
2023-04-30T13:48:53.509Z,14.91
2023-04-30T13:51:20.190Z,15.48
2023-04-30T13:53:47.048Z,15.28
2023-04-30T13:56:15.401Z,15.32
2023-04-30T13:58:42.149Z,15.20
2023-04-30T14:01:10.354Z,15.30
2023-04-30T14:03:37.482Z,14.65
2023-04-30T14:06:05.759Z,14.54
2023-04-30T14:08:33.774Z,14.80
2023-04-30T14:11:00.788Z,15.22
2023-04-30T14:13:27.474Z,14.79
2023-04-30T14:15:56.195Z,15.02
2023-04-30T14:18:23.082Z,15.06
2023-04-30T14:20:49.948Z,14.66
2023-04-30T14:23:17.857Z,15.18
2023-04-30T14:25:44.640Z,14.74
2023-04-30T14:28:11.882Z,15.03
2023-04-30T14:30:38.766Z,14.67
2023-04-30T14:33:05.572Z,15.16
2023-04-30T14:35:33.131Z,15.39
2023-04-30T14:37:59.823Z,14.81
2023-04-30T14:40:26.550Z,15.28
2023-04-30T14:42:53.189Z,15.27
2023-04-30T14:45:20.009Z,14.94
2023-04-30T14:47:46.735Z,15.08
2023-04-30T14:50:14.062Z,15.07
2023-04-30T14:52:42.129Z,14.80
2023-04-30T14:55:09.145Z,14.36
2023-04-30T14:57:36.470Z,14.90
2023-04-30T15:00:04.092Z,15.26
2023-04-30T15:02:30.996Z,15.30
2023-04-30T15:04:57.937Z,14.63
2023-04-30T15:07:24.775Z,14.48
2023-04-30T15:09:52.852Z,14.84
2023-04-30T15:12:20.143Z,14.58
2023-04-30T15:14:46.892Z,15.16
2023-04-30T15:17:13.718Z,15.05
2023-04-30T15:19:40.442Z,15.47
2023-04-30T15:22:07.951Z,15.03
2023-04-30T15:24:34.639Z,15.20
2023-04-30T15:27:01.882Z,14.80
2023-04-30T15:29:28.488Z,15.05
2023-04-30T15:31:55.337Z,14.71
2023-04-30T15:34:22.992Z,14.29
2023-04-30T15:36:50.166Z,14.38
2023-04-30T15:39:17.810Z,14.53
2023-04-30T15:41:47.359Z,14.74
2023-04-30T15:44:14.169Z,14.86
2023-04-30T15:46:41.973Z,14.74
2023-04-30T15:49:08.872Z,14.34
2023-04-30T15:51:36.690Z,14.24
2023-04-30T15:54:03.339Z,14.43
2023-04-30T15:56:30.589Z,14.65
2023-04-30T15:58:57.408Z,14.58
2023-04-30T16:01:24.240Z,14.60
2023-04-30T16:03:51.402Z,14.57
2023-04-30T16:06:18.604Z,14.33
2023-04-30T16:08:46.347Z,14.49
2023-04-30T16:11:13.045Z,14.65
2023-04-30T16:13:39.704Z,14.62
2023-04-30T16:16:08.765Z,14.34
2023-04-30T16:18:35.466Z,14.43
2023-04-30T16:21:02.268Z,14.50
2023-04-30T16:23:28.933Z,14.35
2023-04-30T16:25:56.364Z,14.45
2023-04-30T16:28:23.706Z,14.58
2023-04-30T16:30:50.849Z,14.36
2023-04-30T16:33:17.928Z,14.13
2023-04-30T16:35:44.874Z,13.72
2023-04-30T16:38:11.572Z,13.87
2023-04-30T16:40:38.438Z,13.93
2023-04-30T16:43:06.275Z,14.08
2023-04-30T16:45:33.371Z,14.16
2023-04-30T16:48:00.459Z,14.21
2023-04-30T16:50:27.289Z,14.29
2023-04-30T16:52:53.954Z,14.17
2023-04-30T16:55:20.751Z,14.08
2023-04-30T16:57:47.504Z,14.17
2023-04-30T17:00:15.526Z,14.05
2023-04-30T17:02:45.490Z,13.90
2023-04-30T17:05:12.301Z,13.85
2023-04-30T17:07:38.991Z,13.93
2023-04-30T17:10:06.352Z,13.95
2023-04-30T17:12:33.422Z,13.84
2023-04-30T17:15:00.141Z,13.64
2023-04-30T17:17:26.900Z,13.84
2023-04-30T17:19:53.814Z,13.70
2023-04-30T17:22:21.434Z,13.69
2023-04-30T17:24:48.136Z,13.54
2023-04-30T17:27:15.132Z,13.47
2023-04-30T17:29:42.305Z,13.41
2023-04-30T17:32:10.540Z,13.23
2023-04-30T17:34:38.369Z,13.19
2023-04-30T17:37:05.040Z,13.02
2023-04-30T17:39:32.577Z,13.01
2023-04-30T17:41:59.751Z,12.93
2023-04-30T17:44:26.427Z,12.84
2023-04-30T17:46:54.167Z,12.75
2023-04-30T17:49:20.959Z,12.70
2023-04-30T17:51:48.387Z,12.63
2023-04-30T17:54:15.002Z,12.57
2023-04-30T17:56:41.669Z,12.53
2023-04-30T17:59:08.440Z,12.39
2023-04-30T18:01:35.132Z,12.34
2023-04-30T18:04:03.766Z,12.31
2023-04-30T18:06:31.102Z,12.33
2023-04-30T18:09:01.115Z,12.24
2023-04-30T18:11:28.181Z,12.15
2023-04-30T18:13:54.820Z,12.09
2023-04-30T18:16:21.615Z,11.99
2023-04-30T18:18:48.273Z,11.85
2023-04-30T18:21:15.236Z,11.70
2023-04-30T18:23:41.896Z,11.61
2023-04-30T18:26:08.518Z,11.60
2023-04-30T18:28:36.834Z,11.51
2023-04-30T18:31:03.505Z,11.37
2023-04-30T18:33:31.166Z,11.26
2023-04-30T18:36:01.521Z,11.12
2023-04-30T18:38:29.613Z,11.12
2023-04-30T18:40:56.291Z,11.03
2023-04-30T18:43:23.429Z,10.86
2023-04-30T18:45:50.151Z,10.74
2023-04-30T18:48:19.248Z,10.71
2023-04-30T18:50:46.689Z,10.56
2023-04-30T18:53:13.528Z,10.46
2023-04-30T18:55:40.304Z,10.32
2023-04-30T18:58:08.279Z,10.23
2023-04-30T19:00:35.050Z,10.13
2023-04-30T19:03:01.891Z,9.85
2023-04-30T19:05:28.639Z,9.82
2023-04-30T19:07:55.322Z,9.95
2023-04-30T19:10:21.969Z,9.92
2023-04-30T19:12:49.309Z,9.71
2023-04-30T19:15:17.869Z,9.68
2023-04-30T19:17:44.639Z,9.62
2023-04-30T19:20:12.129Z,9.21
2023-04-30T19:22:38.806Z,9.29
2023-04-30T19:25:05.934Z,9.24
2023-04-30T19:27:32.550Z,8.83
2023-04-30T19:29:59.463Z,9.05
2023-04-30T19:32:26.261Z,8.77
2023-04-30T19:34:53.805Z,8.56
2023-04-30T19:37:20.533Z,8.69
2023-04-30T19:39:47.196Z,8.63
2023-04-30T19:42:13.822Z,8.41
2023-04-30T19:44:40.459Z,8.26
2023-04-30T19:47:07.373Z,8.35
2023-04-30T19:49:34.430Z,8.50
2023-04-30T19:52:01.619Z,8.31
2023-04-30T19:54:28.837Z,8.03
2023-04-30T19:56:55.508Z,8.12
2023-04-30T19:59:22.219Z,8.14
2023-04-30T20:01:49.019Z,8.10
2023-04-30T20:04:15.802Z,8.03
2023-04-30T20:06:42.605Z,8.10
2023-04-30T20:09:09.282Z,8.21
2023-04-30T20:11:36.092Z,8.32
2023-04-30T20:14:03.027Z,8.59
2023-04-30T20:16:29.812Z,8.83
2023-04-30T20:18:56.832Z,9.02
2023-04-30T20:21:25.006Z,9.01
2023-04-30T20:23:51.709Z,8.94
2023-04-30T20:26:18.655Z,9.05
2023-04-30T20:28:45.297Z,9.08
2023-04-30T20:31:12.111Z,8.99
2023-04-30T20:33:41.171Z,8.97
2023-04-30T20:36:08.148Z,8.96
2023-04-30T20:38:34.845Z,8.71
2023-04-30T20:41:02.138Z,8.61
2023-04-30T20:43:28.834Z,8.51
2023-04-30T20:46:01.418Z,8.50
2023-04-30T20:48:28.045Z,8.39
2023-04-30T20:50:55.510Z,8.39
2023-04-30T20:53:22.938Z,8.35
2023-04-30T20:55:49.658Z,8.33
2023-04-30T20:58:16.564Z,8.31
2023-04-30T21:00:43.318Z,8.25
2023-04-30T21:03:10.210Z,8.21
2023-04-30T21:05:37.211Z,8.09
2023-04-30T21:08:03.889Z,8.03
2023-04-30T21:10:36.103Z,8.00
2023-04-30T21:13:05.288Z,7.90
2023-04-30T21:15:34.345Z,7.86
2023-04-30T21:18:01.073Z,7.86
2023-04-30T21:20:28.046Z,7.77
2023-04-30T21:22:55.546Z,7.72
2023-04-30T21:25:22.301Z,7.58
2023-04-30T21:27:49.044Z,7.52
2023-04-30T21:30:17.058Z,7.45
2023-04-30T21:32:47.154Z,7.42
2023-04-30T21:35:14.605Z,7.33
2023-04-30T21:37:42.007Z,7.19
2023-04-30T21:40:09.038Z,7.18
2023-04-30T21:42:36.045Z,7.15
2023-04-30T21:45:02.905Z,7.17
2023-04-30T21:47:30.725Z,7.09
2023-04-30T21:49:58.682Z,7.02
2023-04-30T21:52:25.582Z,6.99
2023-04-30T21:54:52.206Z,6.81
2023-04-30T21:57:19.532Z,6.78
2023-04-30T21:59:46.259Z,6.75
2023-04-30T22:02:22.874Z,6.63
2023-04-30T22:04:50.635Z,6.56
2023-04-30T22:07:17.549Z,6.50
2023-04-30T22:09:44.991Z,6.46
2023-04-30T22:12:11.760Z,6.38
2023-04-30T22:14:38.562Z,6.41
2023-04-30T22:17:08.922Z,6.35
2023-04-30T22:19:35.534Z,6.03
2023-04-30T22:22:02.130Z,6.01
2023-04-30T22:24:29.745Z,5.96
2023-04-30T22:26:56.408Z,6.02
2023-04-30T22:29:23.107Z,6.03
2023-04-30T22:31:49.810Z,6.09
2023-04-30T22:34:19.356Z,6.13
2023-04-30T22:36:46.267Z,5.94
2023-04-30T22:39:13.348Z,5.92
2023-04-30T22:41:40.625Z,5.89
2023-04-30T22:44:07.556Z,5.91
2023-04-30T22:46:36.684Z,5.86
2023-04-30T22:49:03.675Z,5.63
2023-04-30T22:51:31.640Z,5.46
2023-04-30T22:53:58.441Z,5.42
2023-04-30T22:56:25.188Z,5.47
2023-04-30T22:58:51.776Z,5.54
2023-04-30T23:01:18.472Z,5.60
2023-04-30T23:03:45.189Z,5.66
2023-04-30T23:06:11.989Z,5.64
2023-04-30T23:08:38.984Z,5.62
2023-04-30T23:11:05.747Z,5.57
2023-04-30T23:13:32.574Z,5.50
2023-04-30T23:15:59.859Z,5.50
2023-04-30T23:18:27.302Z,5.54
2023-04-30T23:20:59.835Z,5.60
2023-04-30T23:23:27.267Z,5.51
2023-04-30T23:25:54.767Z,5.42
2023-04-30T23:28:22.288Z,5.38
2023-04-30T23:30:52.964Z,5.48
2023-04-30T23:33:20.031Z,5.50
2023-04-30T23:35:47.325Z,5.48
2023-04-30T23:38:14.795Z,5.49
2023-04-30T23:40:42.136Z,5.46
2023-04-30T23:43:09.619Z,5.38
2023-04-30T23:45:36.282Z,5.32
2023-04-30T23:48:03.046Z,5.34
2023-04-30T23:50:29.758Z,5.31
2023-04-30T23:52:56.388Z,5.34
2023-04-30T23:55:23.027Z,5.37
2023-04-30T23:57:49.682Z,5.33
